NZA3443 LOWI-EPKK
Flight info
| Callsign | NZA3443 |
|---|---|
| Flight time | N/A |
| Altitude | 37000 |
| Route | RTT DCT LEDVA DCT NETIR |
| Aircraft | A320/M-SDE3FGHIRWY/LB1 |
Departure
| Time | 2026-05-01 08:01 |
|---|---|
| Airport | Innsbruck Airport (LOWI) |
Arrival
| Time | N/A |
|---|---|
| Airport | Kraków John Paul II International Airport (EPKK) |
| Time | Latitude | Longitude | Altitude | Speed | Heading |
|---|---|---|---|---|---|
| 2026-05-01 07:38 | 47.25804 | 11.34932 | 1901 ft | 0 kts | 173° |
| 2026-05-01 07:49 | 47.25813 | 11.34931 | 1891 ft | 2 kts | 173° |
| 2026-05-01 07:50 | 47.25830 | 11.34927 | 1890 ft | 2 kts | 173° |
| 2026-05-01 07:50 | 47.25839 | 11.34926 | 1892 ft | 0 kts | 173° |
| 2026-05-01 07:51 | 47.25850 | 11.34923 | 1890 ft | 3 kts | 179° |
| 2026-05-01 07:51 | 47.25863 | 11.34925 | 1899 ft | 0 kts | 206° |
| 2026-05-01 07:51 | 47.25865 | 11.34925 | 1899 ft | 1 kts | 212° |
| 2026-05-01 07:52 | 47.25855 | 11.34903 | 1896 ft | 0 kts | 255° |
| 2026-05-01 07:54 | 47.25854 | 11.34901 | 1901 ft | 1 kts | 245° |
| 2026-05-01 07:55 | 47.25839 | 11.34710 | 1901 ft | 12 kts | 262° |
| 2026-05-01 07:55 | 47.25809 | 11.34413 | 1897 ft | 17 kts | 261° |
| 2026-05-01 07:56 | 47.25811 | 11.33880 | 1908 ft | 0 kts | 306° |
| 2026-05-01 07:56 | 47.25812 | 11.33879 | 1908 ft | 1 kts | 306° |
| 2026-05-01 07:57 | 47.25824 | 11.33857 | 1906 ft | 8 kts | 307° |
| 2026-05-01 07:57 | 47.25888 | 11.33721 | 1917 ft | 9 kts | 303° |
| 2026-05-01 07:58 | 47.25907 | 11.33361 | 1902 ft | 24 kts | 261° |
| 2026-05-01 07:58 | 47.25861 | 11.33159 | 1914 ft | 5 kts | 244° |
| 2026-05-01 07:59 | 47.25889 | 11.33160 | 1910 ft | 2 kts | 89° |
| 2026-05-01 07:59 | 47.25895 | 11.33229 | 1914 ft | 5 kts | 82° |
| 2026-05-01 08:00 | 47.25983 | 11.34044 | 1899 ft | 103 kts | 81° |
| 2026-05-01 08:01 | 47.26404 | 11.38487 | 3092 ft | 159 kts | 81° |
| 2026-05-01 08:01 | 47.26598 | 11.40095 | 3729 ft | 160 kts | 78° |
| 2026-05-01 08:01 | 47.26865 | 11.41695 | 4308 ft | 165 kts | 76° |
| 2026-05-01 08:02 | 47.27433 | 11.45328 | 5063 ft | 193 kts | 74° |
| 2026-05-01 08:02 | 47.27804 | 11.47260 | 5764 ft | 194 kts | 74° |
| 2026-05-01 08:03 | 47.28558 | 11.51107 | 7111 ft | 196 kts | 73° |
| 2026-05-01 08:03 | 47.28931 | 11.53023 | 7826 ft | 194 kts | 74° |
| 2026-05-01 08:03 | 47.29655 | 11.56831 | 9194 ft | 193 kts | 74° |
| 2026-05-01 08:04 | 47.30397 | 11.60751 | 10392 ft | 205 kts | 74° |
| 2026-05-01 08:04 | 47.31043 | 11.64136 | 11474 ft | 208 kts | 70° |
| 2026-05-01 08:05 | 47.32670 | 11.68024 | 12230 ft | 245 kts | 55° |
| 2026-05-01 08:05 | 47.33695 | 11.70173 | 12486 ft | 268 kts | 55° |
| 2026-05-01 08:05 | 47.34817 | 11.72516 | 12708 ft | 291 kts | 55° |
| 2026-05-01 08:06 | 47.37331 | 11.77786 | 13060 ft | 335 kts | 55° |
| 2026-05-01 08:06 | 47.39952 | 11.83633 | 14294 ft | 347 kts | 63° |
| 2026-05-01 08:07 | 47.41982 | 11.90157 | 15611 ft | 352 kts | 65° |
| 2026-05-01 08:07 | 47.43962 | 11.96804 | 16934 ft | 356 kts | 66° |
| 2026-05-01 08:08 | 47.44946 | 12.00168 | 17603 ft | 358 kts | 66° |
| 2026-05-01 08:08 | 47.46934 | 12.06974 | 18942 ft | 363 kts | 66° |
| 2026-05-01 08:09 | 47.48954 | 12.13870 | 20150 ft | 367 kts | 66° |
| 2026-05-01 08:09 | 47.49971 | 12.17345 | 20723 ft | 370 kts | 65° |
| 2026-05-01 08:09 | 47.50997 | 12.20852 | 21279 ft | 373 kts | 65° |
| 2026-05-01 08:10 | 47.53088 | 12.27985 | 22323 ft | 378 kts | 65° |
| 2026-05-01 08:10 | 47.55182 | 12.35172 | 23281 ft | 383 kts | 65° |
| 2026-05-01 08:11 | 47.57299 | 12.42471 | 24212 ft | 388 kts | 65° |
| 2026-05-01 08:11 | 47.59435 | 12.49850 | 24994 ft | 392 kts | 64° |
| 2026-05-01 08:12 | 47.60881 | 12.54837 | 25471 ft | 395 kts | 64° |
| 2026-05-01 08:12 | 47.61099 | 12.55592 | 25538 ft | 396 kts | 64° |
| 2026-05-01 08:12 | 47.62608 | 12.60896 | 26275 ft | 393 kts | 64° |
| 2026-05-01 08:13 | 47.63690 | 12.64654 | 26496 ft | 400 kts | 64° |
| 2026-05-01 08:13 | 47.64791 | 12.68460 | 26838 ft | 402 kts | 64° |
| 2026-05-01 08:13 | 47.66999 | 12.76123 | 27507 ft | 406 kts | 64° |
| 2026-05-01 08:14 | 47.68107 | 12.79999 | 27844 ft | 409 kts | 64° |
| 2026-05-01 08:14 | 47.69214 | 12.83892 | 28210 ft | 410 kts | 64° |
| 2026-05-01 08:14 | 47.70325 | 12.87805 | 28542 ft | 413 kts | 64° |
| 2026-05-01 08:14 | 47.71441 | 12.91730 | 29004 ft | 412 kts | 64° |
| 2026-05-01 08:15 | 47.72556 | 12.95646 | 29514 ft | 411 kts | 64° |
| 2026-05-01 08:15 | 47.74761 | 13.03438 | 30574 ft | 408 kts | 64° |
| 2026-05-01 08:15 | 47.75858 | 13.07317 | 31014 ft | 407 kts | 64° |
| 2026-05-01 08:16 | 47.76948 | 13.11188 | 31452 ft | 405 kts | 64° |
| 2026-05-01 08:16 | 47.78032 | 13.15044 | 31881 ft | 403 kts | 64° |
| 2026-05-01 08:16 | 47.79109 | 13.18881 | 32335 ft | 402 kts | 63° |
| 2026-05-01 08:16 | 47.80187 | 13.22707 | 32803 ft | 400 kts | 63° |
| 2026-05-01 08:17 | 47.81259 | 13.26516 | 33278 ft | 399 kts | 63° |
| 2026-05-01 08:17 | 47.82326 | 13.30315 | 33741 ft | 397 kts | 63° |
| 2026-05-01 08:17 | 47.83386 | 13.34102 | 34242 ft | 395 kts | 63° |
| 2026-05-01 08:17 | 47.84437 | 13.37867 | 34672 ft | 394 kts | 63° |
| 2026-05-01 08:18 | 47.85487 | 13.41636 | 35022 ft | 394 kts | 63° |
| 2026-05-01 08:18 | 47.87574 | 13.49157 | 35710 ft | 393 kts | 63° |
| 2026-05-01 08:19 | 47.89672 | 13.56742 | 36359 ft | 393 kts | 64° |
| 2026-05-01 08:19 | 47.90711 | 13.60509 | 36656 ft | 393 kts | 64° |
| 2026-05-01 08:19 | 47.91748 | 13.64280 | 36960 ft | 393 kts | 64° |
| 2026-05-01 08:19 | 47.92786 | 13.68049 | 37246 ft | 393 kts | 64° |
| 2026-05-01 08:20 | 47.93826 | 13.71823 | 37400 ft | 395 kts | 64° |
| 2026-05-01 08:20 | 47.95939 | 13.79487 | 37424 ft | 401 kts | 64° |
| 2026-05-01 08:21 | 47.98054 | 13.87208 | 37433 ft | 402 kts | 64° |
| 2026-05-01 08:21 | 48.00159 | 13.94936 | 37438 ft | 402 kts | 64° |
| 2026-05-01 08:22 | 48.02270 | 14.02712 | 37444 ft | 401 kts | 64° |
| 2026-05-01 08:22 | 48.02368 | 14.03072 | 37446 ft | 401 kts | 64° |
| 2026-05-01 08:23 | 48.03305 | 14.06556 | 37454 ft | 402 kts | 64° |
| 2026-05-01 08:24 | 48.04077 | 14.09412 | 37177 ft | 404 kts | 64° |
| 2026-05-01 08:24 | 48.05112 | 14.13241 | 37328 ft | 394 kts | 64° |
| 2026-05-01 08:24 | 48.06147 | 14.17062 | 37448 ft | 398 kts | 64° |
| 2026-05-01 08:25 | 48.08226 | 14.24772 | 37464 ft | 401 kts | 64° |
| 2026-05-01 08:25 | 48.10301 | 14.32518 | 37470 ft | 401 kts | 64° |
| 2026-05-01 08:26 | 48.12376 | 14.40265 | 37472 ft | 401 kts | 64° |
| 2026-05-01 08:26 | 48.14444 | 14.48019 | 37471 ft | 401 kts | 64° |
| 2026-05-01 08:27 | 48.16514 | 14.55828 | 37470 ft | 401 kts | 65° |
| 2026-05-01 08:27 | 48.18572 | 14.63586 | 37463 ft | 401 kts | 65° |
| 2026-05-01 08:28 | 48.20620 | 14.71352 | 37460 ft | 401 kts | 65° |
| 2026-05-01 08:28 | 48.22664 | 14.79120 | 37457 ft | 401 kts | 65° |
| 2026-05-01 08:29 | 48.24707 | 14.86897 | 37460 ft | 401 kts | 65° |
| 2026-05-01 08:29 | 48.26738 | 14.94687 | 37454 ft | 401 kts | 65° |
| 2026-05-01 08:30 | 48.28761 | 15.02475 | 37453 ft | 400 kts | 65° |
| 2026-05-01 08:30 | 48.30797 | 15.10319 | 37450 ft | 401 kts | 65° |
| 2026-05-01 08:31 | 48.32820 | 15.18117 | 37438 ft | 400 kts | 65° |
| 2026-05-01 08:31 | 48.34834 | 15.25928 | 37437 ft | 401 kts | 65° |
| 2026-05-01 08:32 | 48.36841 | 15.33749 | 37447 ft | 401 kts | 65° |
| 2026-05-01 08:32 | 48.38839 | 15.41581 | 37445 ft | 401 kts | 65° |
| 2026-05-01 08:33 | 48.40838 | 15.49406 | 37441 ft | 401 kts | 65° |
| 2026-05-01 08:33 | 48.42503 | 15.55933 | 37442 ft | 401 kts | 65° |
| 2026-05-01 08:34 | 48.44492 | 15.63787 | 37438 ft | 402 kts | 65° |
| 2026-05-01 08:34 | 48.46493 | 15.71714 | 37438 ft | 402 kts | 65° |
| 2026-05-01 08:35 | 48.48480 | 15.79590 | 37446 ft | 402 kts | 65° |
| 2026-05-01 08:35 | 48.50461 | 15.87484 | 37440 ft | 403 kts | 66° |
| 2026-05-01 08:36 | 48.52436 | 15.95394 | 37442 ft | 403 kts | 66° |
| 2026-05-01 08:36 | 48.54400 | 16.03319 | 37447 ft | 403 kts | 66° |
| 2026-05-01 08:37 | 48.56370 | 16.11246 | 37443 ft | 403 kts | 66° |
| 2026-05-01 08:37 | 48.58347 | 16.19234 | 37445 ft | 403 kts | 66° |
| 2026-05-01 08:38 | 48.60301 | 16.27159 | 37444 ft | 403 kts | 66° |
| 2026-05-01 08:38 | 48.62248 | 16.35101 | 37443 ft | 403 kts | 66° |
| 2026-05-01 08:39 | 48.64191 | 16.43048 | 37439 ft | 403 kts | 66° |
| 2026-05-01 08:39 | 48.66152 | 16.51065 | 37436 ft | 403 kts | 66° |
| 2026-05-01 08:40 | 48.69051 | 16.63013 | 37434 ft | 404 kts | 66° |
| 2026-05-01 08:40 | 48.70974 | 16.70990 | 37432 ft | 404 kts | 66° |
| 2026-05-01 08:41 | 48.73085 | 16.78826 | 37432 ft | 400 kts | 57° |
| 2026-05-01 08:41 | 48.76381 | 16.85619 | 37429 ft | 397 kts | 50° |
| 2026-05-01 08:42 | 48.79794 | 16.92191 | 37426 ft | 397 kts | 50° |
| 2026-05-01 08:42 | 48.83203 | 16.98784 | 37428 ft | 397 kts | 50° |
| 2026-05-01 08:43 | 48.86635 | 17.05424 | 37431 ft | 397 kts | 50° |
| 2026-05-01 08:43 | 48.90040 | 17.12024 | 37443 ft | 397 kts | 50° |
| 2026-05-01 08:44 | 48.93439 | 17.18626 | 37452 ft | 397 kts | 50° |
| 2026-05-01 08:44 | 48.96833 | 17.25245 | 37457 ft | 396 kts | 50° |
| 2026-05-01 08:45 | 49.00217 | 17.31852 | 37465 ft | 395 kts | 50° |
| 2026-05-01 08:45 | 49.03617 | 17.38504 | 37462 ft | 395 kts | 50° |
| 2026-05-01 08:46 | 49.06978 | 17.45118 | 37458 ft | 394 kts | 50° |
| 2026-05-01 08:46 | 49.10337 | 17.51725 | 37457 ft | 394 kts | 50° |
| 2026-05-01 08:47 | 49.13691 | 17.58345 | 37450 ft | 394 kts | 51° |
| 2026-05-01 08:47 | 49.17041 | 17.64976 | 37439 ft | 394 kts | 51° |
| 2026-05-01 08:48 | 49.20383 | 17.71602 | 37429 ft | 393 kts | 51° |
| 2026-05-01 08:48 | 49.23737 | 17.78293 | 37418 ft | 393 kts | 51° |
| 2026-05-01 08:49 | 49.27077 | 17.84924 | 37405 ft | 394 kts | 51° |
| 2026-05-01 08:49 | 49.30435 | 17.91615 | 37401 ft | 394 kts | 51° |
| 2026-05-01 08:50 | 49.33765 | 17.98283 | 37401 ft | 394 kts | 51° |
| 2026-05-01 08:50 | 49.37082 | 18.04953 | 37400 ft | 394 kts | 51° |
| 2026-05-01 08:51 | 49.40400 | 18.11645 | 37399 ft | 394 kts | 51° |
| 2026-05-01 08:51 | 49.43720 | 18.18350 | 37407 ft | 395 kts | 51° |
| 2026-05-01 08:52 | 49.47064 | 18.25108 | 37406 ft | 395 kts | 51° |
| 2026-05-01 08:52 | 49.50382 | 18.31840 | 37411 ft | 395 kts | 51° |
| 2026-05-01 08:53 | 49.53726 | 18.38637 | 37412 ft | 395 kts | 51° |